Time;durP1;ratioP1;P1;durP2;ratioP2;P2;SDS_P1;SDS_P2;PMS_P1;PMS_P2;Temp;Humidity;BMP_temperature;BMP_pressure;BME280_temperature;BME280_humidity;BME280_pressure;Samples;Min_cycle;Max_cycle;Signal;HPM_P1;HPM_P2
2023/07/05 00:02:25;;;;;;;6.37;4.27;;;;;;;17.62;76.72;100221.44;4979293;28;20226;-84
2023/07/05 00:04:56;;;;;;;4.67;4.27;;;;;;;17.64;76.09;100232.75;4979755;28;20211;-79
2023/07/05 00:07:40;;;;;;;6.87;3.90;;;;;;;17.65;76.38;100232.69;4979549;28;20250;-79
2023/07/05 00:10:26;;;;;;;6.00;3.90;;;;;;;17.65;76.34;100219.47;4979473;28;20265;-82
2023/07/05 00:13:00;;;;;;;5.97;4.10;;;;;;;17.55;77.00;100201.56;4978917;28;20752;-82
2023/07/05 00:15:26;;;;;;;4.90;4.23;;;;;;;17.49;77.78;100168.44;4985330;23;20637;-74
2023/07/05 00:17:53;;;;;;;6.13;4.37;;;;;;;17.56;77.40;100168.97;4974820;28;20701;-74
2023/07/05 00:20:20;;;;;;;3.93;3.63;;;;;;;17.59;78.25;100153.81;4978450;28;20256;-73
2023/07/05 00:22:47;;;;;;;4.40;4.00;;;;;;;17.58;78.83;100138.06;4986933;28;20256;-74
2023/07/05 00:25:14;;;;;;;5.37;4.73;;;;;;;17.57;79.52;100110.81;4976253;28;20246;-74
2023/07/05 00:27:40;;;;;;;5.07;4.57;;;;;;;17.56;79.42;100098.56;4975361;28;20709;-74
2023/07/05 00:30:08;;;;;;;5.17;4.67;;;;;;;17.57;80.49;100073.03;4975139;28;20285;-74
2023/07/05 00:32:34;;;;;;;4.97;4.50;;;;;;;17.56;80.75;100060.75;4967799;28;20216;-74
2023/07/05 00:35:00;;;;;;;4.80;4.40;;;;;;;17.51;80.52;100058.38;4972027;28;20270;-74
2023/07/05 00:37:27;;;;;;;6.93;4.10;;;;;;;17.54;80.77;100041.50;4975363;28;20198;-74
2023/07/05 00:39:54;;;;;;;4.90;4.43;;;;;;;17.54;81.54;100047.66;4975056;28;20231;-74
2023/07/05 00:42:21;;;;;;;6.87;4.43;;;;;;;17.54;81.55;100037.09;4974896;28;20617;-74
2023/07/05 00:45:35;;;;;;;5.20;4.27;;;;;;;17.52;81.58;100025.78;4972325;28;20259;-74
2023/07/05 00:48:02;;;;;;;4.60;4.30;;;;;;;17.48;81.86;100011.03;4896447;29;20354;-74
2023/07/05 00:50:38;;;;;;;5.97;4.43;;;;;;;17.47;81.89;100011.97;4965530;28;20234;-74
2023/07/05 00:53:05;;;;;;;6.30;4.37;;;;;;;17.45;82.45;99998.84;4974672;28;20207;-75
2023/07/05 00:55:33;;;;;;;4.80;4.23;;;;;;;17.40;83.79;99971.88;4978233;28;20218;-75
2023/07/05 00:58:01;;;;;;;6.00;4.50;;;;;;;17.43;84.18;99945.31;4963820;28;20207;-74
2023/07/05 01:00:27;;;;;;;5.20;4.50;;;;;;;17.40;84.38;99940.22;4978776;28;20227;-74
2023/07/05 01:02:57;;;;;;;8.23;4.50;;;;;;;17.42;84.56;99943.63;4969948;28;20207;-74
2023/07/05 01:05:25;;;;;;;4.87;4.43;;;;;;;17.36;85.86;99929.91;4974377;28;20211;-75
2023/07/05 01:07:51;;;;;;;4.83;4.30;;;;;;;17.27;85.45;99912.81;4974493;28;20285;-73
2023/07/05 01:10:20;;;;;;;4.23;3.87;;;;;;;17.21;85.78;99905.25;4978874;28;20238;-74
2023/07/05 01:12:55;;;;;;;4.70;4.30;;;;;;;17.26;85.82;99911.97;4955235;28;20204;-74
2023/07/05 01:15:27;;;;;;;5.57;4.83;;;;;;;17.25;85.63;99915.53;4955341;28;20226;-74
2023/07/05 01:18:03;;;;;;;6.40;4.40;;;;;;;17.27;85.83;99902.25;4955026;28;20256;-74
2023/07/05 01:20:39;;;;;;;4.70;4.30;;;;;;;17.29;86.00;99895.09;4966766;28;20357;-74
2023/07/05 01:23:21;;;;;;;6.63;4.30;;;;;;;17.32;85.43;99897.56;4975354;28;20280;-74
2023/07/05 01:26:07;;;;;;;4.23;3.93;;;;;;;17.30;86.22;99893.31;4964780;28;20239;-74
2023/07/05 01:28:55;;;;;;;5.73;4.33;;;;;;;17.31;85.63;99903.78;4967110;28;20237;-74
2023/07/05 01:31:44;;;;;;;5.40;4.80;;;;;;;17.27;86.00;99892.53;4971681;28;20295;-73
2023/07/05 01:34:19;;;;;;;4.60;4.20;;;;;;;17.26;86.31;99866.25;4971598;28;20667;-74
2023/07/05 01:36:46;;;;;;;6.10;5.50;;;;;;;17.24;85.69;99869.00;4974179;28;20783;-74
2023/07/05 01:39:12;;;;;;;5.47;4.93;;;;;;;17.22;85.02;99888.47;4973592;28;20265;-74
2023/07/05 01:41:39;;;;;;;5.30;4.80;;;;;;;17.15;84.76;99898.50;4974092;28;20672;-74
2023/07/05 01:44:06;;;;;;;6.27;5.43;;;;;;;17.12;85.15;99897.81;4973812;28;20215;-74
2023/07/05 01:46:38;;;;;;;7.67;5.30;;;;;;;17.11;85.33;99882.94;4973936;28;20665;-74
2023/07/05 01:49:17;;;;;;;7.30;5.13;;;;;;;17.13;85.20;99873.16;4973503;28;20234;-74
2023/07/05 01:51:49;;;;;;;5.13;4.73;;;;;;;17.10;85.51;99874.16;4973951;28;20214;-74
2023/07/05 01:54:23;;;;;;;5.30;4.80;;;;;;;17.12;85.52;99871.44;4973679;28;20218;-74
2023/07/05 01:56:58;;;;;;;5.27;4.77;;;;;;;17.15;85.28;99876.56;4973948;28;20241;-74
2023/07/05 01:59:29;;;;;;;7.47;5.20;;;;;;;17.12;85.37;99880.19;4976680;28;20232;-74
2023/07/05 02:01:58;;;;;;;8.23;5.13;;;;;;;16.95;83.57;99914.56;4977837;28;20207;-74
2023/07/05 02:04:28;;;;;;;13.20;5.23;;;;;;;16.95;83.76;99920.69;4965341;28;20207;-74
2023/07/05 02:06:54;;;;;;;5.93;5.40;;;;;;;16.79;84.24;99911.88;4958718;28;20235;-74
2023/07/05 02:09:21;;;;;;;6.57;4.63;;;;;;;16.90;84.71;99901.63;4972632;28;20271;-74
2023/07/05 02:11:47;;;;;;;6.23;5.60;;;;;;;16.98;85.94;99870.41;4973653;28;20276;-74
2023/07/05 02:14:14;;;;;;;5.90;5.30;;;;;;;17.02;86.34;99845.56;4972940;28;20213;-73
2023/07/05 02:16:41;;;;;;;6.07;5.03;;;;;;;16.98;85.91;99859.03;4973234;28;20314;-74
2023/07/05 02:19:07;;;;;;;6.03;4.73;;;;;;;16.99;85.29;99864.22;4973121;28;20237;-74
2023/07/05 02:21:35;;;;;;;5.50;5.10;;;;;;;16.96;86.42;99821.34;4973268;28;20211;-74
2023/07/05 02:24:02;;;;;;;9.30;5.27;;;;;;;16.96;86.71;99816.06;4973060;28;20210;-74
2023/07/05 02:26:28;;;;;;;5.03;4.63;;;;;;;16.95;86.50;99825.78;4969066;28;20243;-74
2023/07/05 02:28:55;;;;;;;5.37;4.60;;;;;;;16.97;87.36;99804.59;4969623;28;20221;-74
2023/07/05 02:31:22;;;;;;;5.97;5.43;;;;;;;16.94;87.89;99784.50;4973173;28;20218;-74
2023/07/05 02:33:48;;;;;;;5.63;5.13;;;;;;;16.92;87.25;99791.66;4965095;28;20292;-74
2023/07/05 02:36:15;;;;;;;6.07;5.23;;;;;;;16.94;87.63;99786.31;4957296;28;20211;-74
2023/07/05 02:38:44;;;;;;;6.17;5.13;;;;;;;16.92;87.96;99765.28;4973254;28;20204;-74
2023/07/05 02:41:10;;;;;;;5.57;5.07;;;;;;;16.93;88.79;99748.56;4972640;28;20348;-74
2023/07/05 02:43:37;;;;;;;5.13;4.73;;;;;;;16.94;88.96;99744.13;4972523;28;20263;-74
2023/07/05 02:46:05;;;;;;;6.70;5.07;;;;;;;16.90;89.32;99730.25;4973205;28;20209;-74
2023/07/05 02:48:31;;;;;;;5.90;5.47;;;;;;;16.88;89.31;99719.78;4973206;28;20225;-74
2023/07/05 02:50:58;;;;;;;10.60;5.80;;;;;;;16.87;88.64;99726.03;4972809;28;20230;-74
2023/07/05 02:53:24;;;;;;;6.00;5.50;;;;;;;16.85;89.03;99716.50;4972835;28;20269;-74
2023/07/05 02:55:52;;;;;;;6.53;5.97;;;;;;;16.84;89.91;99702.44;4972736;28;20254;-74
2023/07/05 02:58:18;;;;;;;7.50;5.80;;;;;;;16.84;89.76;99694.53;4972428;28;20731;-74
2023/07/05 03:00:45;;;;;;;6.93;6.33;;;;;;;16.81;89.51;99685.97;4975378;28;20721;-74
2023/07/05 03:03:11;;;;;;;6.33;5.83;;;;;;;16.77;90.73;99663.31;4969179;28;20214;-74
2023/07/05 03:05:38;;;;;;;6.20;5.53;;;;;;;16.81;90.26;99660.47;4965936;28;20208;-74
2023/07/05 03:08:05;;;;;;;8.17;6.27;;;;;;;16.79;90.07;99664.94;4972710;28;20232;-74
2023/07/05 03:10:31;;;;;;;6.10;5.50;;;;;;;16.79;90.08;99658.84;4968638;28;20229;-74
2023/07/05 03:12:59;;;;;;;6.33;5.57;;;;;;;16.74;90.77;99647.69;4961193;28;20750;-74
2023/07/05 03:15:25;;;;;;;7.70;6.27;;;;;;;16.67;90.73;99644.56;4953421;28;20298;-74
2023/07/05 03:17:51;;;;;;;8.07;7.27;;;;;;;16.67;90.14;99650.69;4953373;28;20719;-74
2023/07/05 03:20:18;;;;;;;6.93;6.23;;;;;;;16.64;90.39;99650.00;4952902;28;20235;-74
2023/07/05 03:22:44;;;;;;;6.03;5.50;;;;;;;16.61;90.81;99650.16;4966609;28;20254;-74
2023/07/05 03:25:10;;;;;;;7.73;6.47;;;;;;;16.55;91.17;99630.31;4972407;28;20253;-74
2023/07/05 03:27:37;;;;;;;7.17;6.57;;;;;;;16.55;90.03;99646.13;4975990;28;20303;-74
2023/07/05 03:30:06;;;;;;;6.40;5.90;;;;;;;16.55;90.19;99639.97;4953459;28;20596;-74
2023/07/05 03:32:32;;;;;;;7.73;7.03;;;;;;;16.55;90.43;99635.56;4964771;28;20200;-74
2023/07/05 03:34:59;;;;;;;9.53;7.50;;;;;;;16.51;90.01;99636.69;4975969;28;20245;-74
2023/07/05 03:37:28;;;;;;;7.87;7.17;;;;;;;16.44;89.70;99636.16;4976336;28;20673;-74
2023/07/05 03:39:54;;;;;;;8.07;7.40;;;;;;;16.50;89.21;99648.16;4975824;28;20638;-74
2023/07/05 03:42:20;;;;;;;8.30;7.57;;;;;;;16.48;88.92;99661.41;4975765;28;20746;-74
2023/07/05 03:44:47;;;;;;;9.30;6.90;;;;;;;16.45;86.47;99693.19;4976372;28;20207;-74
2023/07/05 03:47:15;;;;;;;8.83;7.93;;;;;;;16.49;83.91;99780.81;4976206;28;20209;-74
2023/07/05 03:49:41;;;;;;;8.93;7.93;;;;;;;16.57;82.80;99797.06;4975432;28;20280;-74
2023/07/05 03:52:07;;;;;;;7.70;6.90;;;;;;;16.57;81.65;99830.44;4976230;28;20278;-74
2023/07/05 03:54:34;;;;;;;7.37;6.67;;;;;;;16.58;80.48;99872.53;4975574;28;20198;-74
2023/07/05 03:57:00;;;;;;;9.60;6.90;;;;;;;16.52;79.20;99917.66;4976164;28;20635;-74
2023/07/05 03:59:27;;;;;;;7.93;7.33;;;;;;;16.56;79.52;99918.34;4975776;28;20267;-74
2023/07/05 04:01:55;;;;;;;7.97;7.23;;;;;;;16.63;78.84;99928.50;4976160;28;20214;-74
2023/07/05 04:04:23;;;;;;;7.90;7.10;;;;;;;16.74;77.50;99953.41;4982639;28;20678;-74
2023/07/05 04:06:49;;;;;;;7.30;6.70;;;;;;;16.77;78.27;99951.47;4981554;28;20203;-74
2023/07/05 04:09:15;;;;;;;7.63;6.83;;;;;;;16.82;77.14;99988.16;4961374;28;20238;-74
2023/07/05 04:11:42;;;;;;;8.33;6.40;;;;;;;16.88;76.80;99986.06;4983728;28;20211;-74
2023/07/05 04:14:08;;;;;;;8.17;7.20;;;;;;;16.85;75.90;100004.69;4975638;28;20258;-74
2023/07/05 04:16:34;;;;;;;7.67;6.97;;;;;;;16.90;75.66;100019.41;4975618;28;20214;-74
2023/07/05 04:19:01;;;;;;;7.07;6.50;;;;;;;16.90;74.43;100029.94;4974840;28;20266;-74
2023/07/05 04:21:29;;;;;;;8.47;6.83;;;;;;;16.98;75.01;100048.88;4975564;28;20220;-74
2023/07/05 04:23:55;;;;;;;7.10;6.50;;;;;;;17.03;75.27;100033.66;4975432;28;20203;-74
2023/07/05 04:26:24;;;;;;;7.27;6.53;;;;;;;17.11;74.64;100028.84;4975414;28;20211;-74
2023/07/05 04:28:51;;;;;;;7.20;6.57;;;;;;;17.12;76.54;100006.78;4975386;28;20226;-74
2023/07/05 04:31:23;;;;;;;7.03;6.43;;;;;;;17.11;78.65;99943.59;4975400;28;20231;-74
2023/07/05 04:33:50;;;;;;;9.97;6.63;;;;;;;17.07;78.05;99925.28;4966344;28;20686;-75
2023/07/05 04:36:17;;;;;;;7.03;6.20;;;;;;;17.07;79.91;99864.63;4957872;28;20558;-74
2023/07/05 04:38:44;;;;;;;5.90;5.40;;;;;;;17.10;80.56;99823.22;4957571;28;20739;-74
2023/07/05 04:41:11;;;;;;;6.80;6.20;;;;;;;17.00;81.27;99812.31;4966458;28;20238;-74
2023/07/05 04:43:37;;;;;;;6.60;6.00;;;;;;;17.04;82.18;99785.69;4955195;28;20216;-74
2023/07/05 04:46:03;;;;;;;7.87;6.33;;;;;;;17.05;84.91;99703.03;4955891;28;20264;-74
2023/07/05 04:48:31;;;;;;;7.07;6.57;;;;;;;17.01;86.05;99654.03;4955231;28;20228;-74
2023/07/05 04:50:58;;;;;;;6.30;5.80;;;;;;;17.01;86.68;99626.84;4955206;28;20702;-74
2023/07/05 04:53:27;;;;;;;7.00;6.40;;;;;;;17.00;88.59;99583.78;4973682;28;20211;-74
2023/07/05 04:55:57;;;;;;;6.60;6.00;;;;;;;16.97;90.54;99531.25;4974670;28;20207;-74
2023/07/05 04:58:25;;;;;;;5.93;5.53;;;;;;;16.97;91.78;99504.06;4976666;28;20358;-74
2023/07/05 05:00:52;;;;;;;6.13;5.53;;;;;;;16.92;92.72;99474.47;4977760;28;20708;-74
2023/07/05 05:03:20;;;;;;;5.90;5.40;;;;;;;16.85;91.81;99484.53;4974375;28;20215;-74
2023/07/05 05:05:49;;;;;;;5.53;5.03;;;;;;;16.86;91.94;99497.59;4974431;28;20237;-74
2023/07/05 05:08:15;;;;;;;5.50;5.00;;;;;;;16.93;92.44;99486.72;4974471;28;20274;-74
2023/07/05 05:10:42;;;;;;;6.50;5.90;;;;;;;16.95;92.60;99490.13;4974196;28;20762;-74
2023/07/05 05:13:09;;;;;;;6.40;5.27;;;;;;;16.97;91.90;99506.69;4973501;28;20556;-74
2023/07/05 05:15:37;;;;;;;5.50;5.00;;;;;;;16.87;91.05;99536.22;4966507;28;20274;-74
2023/07/05 05:18:04;;;;;;;5.17;4.77;;;;;;;16.93;92.11;99513.91;4974109;28;20553;-74
2023/07/05 05:20:31;;;;;;;5.60;4.90;;;;;;;16.94;93.27;99493.69;4974253;28;20235;-75
2023/07/05 05:22:58;;;;;;;5.13;4.73;;;;;;;16.92;94.04;99488.50;4974290;28;20207;-75
2023/07/05 05:25:24;;;;;;;4.70;4.30;;;;;;;16.97;93.83;99485.59;4974063;28;20580;-75
2023/07/05 05:27:51;;;;;;;4.67;4.27;;;;;;;17.00;93.30;99519.66;4974486;28;20258;-74
2023/07/05 05:30:19;;;;;;;5.13;4.73;;;;;;;16.99;94.22;99502.16;4973604;28;20700;-74
2023/07/05 05:32:46;;;;;;;5.00;4.57;;;;;;;16.95;94.21;99505.94;4974247;28;20212;-75
2023/07/05 05:35:12;;;;;;;4.70;4.30;;;;;;;17.05;94.52;99510.53;4973761;28;20242;-74
2023/07/05 05:37:39;;;;;;;4.17;3.87;;;;;;;17.00;95.04;99520.50;4974079;28;20239;-74
2023/07/05 05:40:07;;;;;;;4.57;4.17;;;;;;;17.01;95.31;99513.47;4973755;28;20227;-74
2023/07/05 05:42:33;;;;;;;4.17;3.77;;;;;;;17.07;94.84;99536.81;4974679;28;20284;-74
2023/07/05 05:45:00;;;;;;;3.90;3.60;;;;;;;17.12;95.10;99557.63;4973816;28;20211;-74
2023/07/05 05:47:28;;;;;;;5.10;4.70;;;;;;;17.03;97.28;99554.59;4974041;28;20244;-74
2023/07/05 05:49:54;;;;;;;7.00;6.30;;;;;;;16.53;100.00;99499.59;4973490;28;20697;-75
2023/07/05 05:52:20;;;;;;;8.73;5.80;;;;;;;16.37;100.00;99475.94;4973762;28;20580;-74
2023/07/05 05:54:47;;;;;;;6.80;6.30;;;;;;;16.45;100.00;99440.31;4973638;28;20256;-74
2023/07/05 05:57:13;;;;;;;6.33;5.70;;;;;;;16.52;100.00;99432.88;4972892;28;20206;-74
2023/07/05 05:59:39;;;;;;;4.20;3.80;;;;;;;16.52;100.00;99409.16;4973590;28;20718;-74
2023/07/05 06:02:06;;;;;;;5.00;4.57;;;;;;;16.61;100.00;99397.22;4973386;28;20313;-74
2023/07/05 06:04:34;;;;;;;3.57;3.27;;;;;;;16.68;100.00;99395.91;4973203;28;20611;-74
2023/07/05 06:07:00;;;;;;;5.47;3.93;;;;;;;16.71;100.00;99411.56;4975439;28;20269;-74
2023/07/05 06:09:27;;;;;;;4.03;3.70;;;;;;;16.72;100.00;99412.38;4965173;28;20290;-74
2023/07/05 06:11:53;;;;;;;4.70;3.67;;;;;;;16.80;100.00;99418.03;4967649;28;20210;-74
2023/07/05 06:14:19;;;;;;;4.80;3.83;;;;;;;16.85;100.00;99410.75;4966168;28;20216;-74
2023/07/05 06:16:46;;;;;;;4.67;4.23;;;;;;;16.91;100.00;99404.22;4965033;28;20278;-74
2023/07/05 06:19:12;;;;;;;4.90;4.40;;;;;;;16.95;100.00;99405.75;4973032;28;20239;-74
2023/07/05 06:21:40;;;;;;;4.53;4.10;;;;;;;17.00;100.00;99403.66;4976957;28;20257;-75
2023/07/05 06:24:06;;;;;;;5.67;4.50;;;;;;;17.06;100.00;99403.28;4961710;28;20215;-74
2023/07/05 06:26:33;;;;;;;4.47;4.07;;;;;;;17.07;100.00;99410.25;4977426;28;20594;-74
2023/07/05 06:28:59;;;;;;;4.40;3.97;;;;;;;17.05;100.00;99412.13;4968301;28;20297;-74
2023/07/05 06:31:33;;;;;;;5.80;3.97;;;;;;;17.05;100.00;99418.25;4981312;28;20261;-76
2023/07/05 06:33:59;;;;;;;4.47;4.07;;;;;;;17.09;100.00;99441.81;4978546;28;20209;-75
2023/07/05 06:36:26;;;;;;;3.77;3.40;;;;;;;17.14;100.00;99445.00;4966546;28;20211;-74
2023/07/05 06:38:54;;;;;;;3.80;3.53;;;;;;;17.14;100.00;99445.81;4975979;28;20216;-75
2023/07/05 06:41:20;;;;;;;4.00;3.23;;;;;;;17.19;100.00;99440.28;4971647;28;20278;-75
2023/07/05 06:43:46;;;;;;;3.20;3.00;;;;;;;17.17;100.00;99431.63;4975638;28;20211;-74
2023/07/05 06:46:13;;;;;;;4.07;2.77;;;;;;;17.22;100.00;99435.69;4953637;28;20210;-74
2023/07/05 06:48:39;;;;;;;2.60;2.43;;;;;;;17.31;100.00;99444.78;4967951;28;20256;-74
2023/07/05 06:51:06;;;;;;;2.97;2.77;;;;;;;17.37;100.00;99454.13;4984347;28;20262;-74
2023/07/05 06:53:32;;;;;;;3.40;3.10;;;;;;;17.35;100.00;99446.28;4979050;28;20296;-75
2023/07/05 06:56:00;;;;;;;3.07;2.83;;;;;;;17.45;100.00;99455.31;4959711;28;20208;-74
2023/07/05 06:58:26;;;;;;;3.57;2.60;;;;;;;17.50;100.00;99454.16;4970832;28;20216;-74
2023/07/05 07:00:53;;;;;;;3.07;2.77;;;;;;;17.55;100.00;99468.78;4966651;28;20226;-74
2023/07/05 07:03:19;;;;;;;2.63;2.43;;;;;;;17.58;100.00;99483.56;4971784;28;20214;-74
2023/07/05 07:05:51;;;;;;;3.50;3.20;;;;;;;17.63;100.00;99476.19;4965177;28;20557;-74
2023/07/05 07:08:17;;;;;;;3.20;2.90;;;;;;;17.63;100.00;99486.75;4975490;28;20740;-73
2023/07/05 07:10:43;;;;;;;2.73;2.50;;;;;;;17.69;100.00;99494.28;4969237;28;20227;-73
2023/07/05 07:13:11;;;;;;;2.43;2.23;;;;;;;17.75;100.00;99509.72;4976464;28;20242;-74
2023/07/05 07:15:37;;;;;;;4.70;2.60;;;;;;;17.68;100.00;99487.31;4976507;28;20211;-74
2023/07/05 07:18:04;;;;;;;2.77;2.57;;;;;;;17.64;100.00;99499.00;4976644;28;20215;-74
2023/07/05 07:20:31;;;;;;;1.90;1.80;;;;;;;17.65;100.00;99537.66;4976474;28;20288;-74
2023/07/05 07:22:59;;;;;;;2.03;1.83;;;;;;;17.61;100.00;99557.25;4978627;28;20238;-74
2023/07/05 07:25:25;;;;;;;2.10;1.90;;;;;;;17.62;100.00;99541.34;4957120;28;20211;-74
2023/07/05 07:27:52;;;;;;;2.07;1.87;;;;;;;17.67;100.00;99535.75;4969849;28;20207;-73
2023/07/05 07:30:19;;;;;;;1.70;1.60;;;;;;;17.65;100.00;99596.56;4983951;28;20285;-74
2023/07/05 07:32:46;;;;;;;1.80;1.70;;;;;;;17.67;100.00;99626.34;4980114;28;20205;-74
2023/07/05 07:35:13;;;;;;;1.90;1.80;;;;;;;17.73;100.00;99609.28;4964267;28;20357;-74
2023/07/05 07:37:39;;;;;;;2.13;1.80;;;;;;;17.76;100.00;99608.25;4984342;28;20205;-74
2023/07/05 07:40:08;;;;;;;1.53;1.43;;;;;;;17.78;100.00;99622.19;4975918;28;20252;-74
2023/07/05 07:42:34;;;;;;;2.40;1.70;;;;;;;17.81;100.00;99643.13;4984143;28;20303;-74
2023/07/05 07:45:01;;;;;;;1.60;1.50;;;;;;;17.71;100.00;99671.03;4969625;28;20211;-74
2023/07/05 07:47:28;;;;;;;2.10;1.90;;;;;;;17.89;100.00;99661.19;4966292;28;20273;-74
2023/07/05 07:49:55;;;;;;;1.57;1.47;;;;;;;17.86;98.94;99667.50;4983125;28;20227;-74
2023/07/05 07:52:21;;;;;;;2.97;1.40;;;;;;;17.96;99.15;99688.91;4975375;28;20243;-75
2023/07/05 07:54:47;;;;;;;1.70;1.60;;;;;;;17.69;93.45;99771.44;4973102;28;20203;-74
2023/07/05 07:57:14;;;;;;;2.13;1.70;;;;;;;17.64;92.05;99824.50;4963574;28;20215;-73
2023/07/05 07:59:41;;;;;;;1.90;1.80;;;;;;;17.52;91.04;99854.25;4970890;28;20703;-74
2023/07/05 08:02:11;;;;;;;3.07;2.17;;;;;;;17.43;89.81;99882.00;4964893;28;20301;-74
2023/07/05 08:04:44;;;;;;;2.47;2.27;;;;;;;17.21;86.67;99939.53;4977445;28;20203;-73
2023/07/05 08:07:11;;;;;;;2.20;2.00;;;;;;;17.11;84.51;100005.09;4964321;28;20212;-73
2023/07/05 08:09:37;;;;;;;2.50;2.30;;;;;;;17.15;85.41;100006.66;4974892;28;20299;-73
2023/07/05 08:12:05;;;;;;;2.20;2.00;;;;;;;17.24;83.96;100040.47;4977182;28;20243;-73
2023/07/05 08:14:31;;;;;;;2.73;2.17;;;;;;;17.19;81.55;100052.19;4966172;28;20203;-73
2023/07/05 08:16:57;;;;;;;2.20;2.00;;;;;;;17.15;78.71;100137.66;4980184;28;20218;-73
2023/07/05 08:19:24;;;;;;;2.30;2.10;;;;;;;17.28;80.39;100130.81;4969908;28;20285;-73
2023/07/05 08:21:51;;;;;;;2.10;1.80;;;;;;;17.33;80.30;100142.00;4970368;28;20218;-73
2023/07/05 08:24:18;;;;;;;2.10;1.80;;;;;;;17.25;78.67;100155.56;4971904;28;20219;-73
2023/07/05 08:26:45;;;;;;;1.97;1.87;;;;;;;17.41;79.33;100162.72;4971746;28;20206;-73
2023/07/05 08:29:12;;;;;;;3.07;2.20;;;;;;;17.49;80.20;100149.97;4970862;28;20211;-73
2023/07/05 08:31:38;;;;;;;2.20;2.03;;;;;;;17.51;78.50;100168.38;4982844;28;20630;-73
2023/07/05 08:34:04;;;;;;;2.77;2.17;;;;;;;17.58;78.53;100211.97;4973653;28;20271;-73
2023/07/05 08:36:34;;;;;;;2.27;2.07;;;;;;;17.73;78.13;100200.59;4975128;28;20214;-74
2023/07/05 08:39:05;;;;;;;2.23;1.97;;;;;;;17.84;76.69;100208.84;4980766;28;20225;-73
2023/07/05 08:41:43;;;;;;;2.27;2.07;;;;;;;18.07;77.43;100225.25;4969042;28;20203;-73
2023/07/05 08:44:19;;;;;;;2.60;2.17;;;;;;;18.04;73.53;100273.81;4981532;28;20217;-73
2023/07/05 08:46:50;;;;;;;3.77;2.17;;;;;;;18.06;73.24;100290.44;4975613;28;20207;-73
2023/07/05 08:49:22;;;;;;;2.13;1.97;;;;;;;18.15;74.79;100289.09;4974256;28;20712;-73
2023/07/05 08:51:50;;;;;;;2.30;1.93;;;;;;;18.03;70.72;100356.63;4979138;28;20680;-73
2023/07/05 08:54:18;;;;;;;2.63;1.80;;;;;;;18.13;73.34;100343.81;4978880;28;20233;-73
2023/07/05 08:56:48;;;;;;;2.10;2.00;;;;;;;18.21;72.27;100340.75;4970284;28;20214;-73
2023/07/05 08:59:23;;;;;;;1.73;1.63;;;;;;;18.20;69.82;100419.19;4963952;28;20279;-73
2023/07/05 09:01:55;;;;;;;1.97;1.87;;;;;;;18.39;72.15;100399.72;4277255;28;10000789;-74
2023/07/05 09:04:24;;;;;;;2.33;2.13;;;;;;;18.10;69.03;100481.34;4966716;28;20481;-74
2023/07/05 09:06:56;;;;;;;2.63;2.20;;;;;;;18.06;69.86;100467.44;4971532;28;20238;-73
2023/07/05 09:09:50;;;;;;;2.77;2.30;;;;;;;18.19;72.38;100388.41;4971688;28;20290;-73
2023/07/05 09:12:23;;;;;;;1.80;1.70;;;;;;;18.26;71.59;100376.59;4967533;28;20669;-73
2023/07/05 09:15:02;;;;;;;3.60;2.00;;;;;;;18.23;72.64;100399.66;4968312;28;20239;-73
2023/07/05 09:17:37;;;;;;;2.37;2.17;;;;;;;18.16;67.43;100466.97;4961055;28;20245;-73
2023/07/05 09:20:14;;;;;;;2.27;2.07;;;;;;;18.05;64.02;100579.28;4973172;28;20235;-73
2023/07/05 09:22:42;;;;;;;2.50;2.27;;;;;;;18.32;68.62;100541.91;4970793;28;20207;-73
2023/07/05 09:25:14;;;;;;;5.03;1.83;;;;;;;18.35;65.30;100576.09;4972769;28;20267;-73
2023/07/05 09:27:46;;;;;;;2.10;1.90;;;;;;;18.35;64.12;100639.53;4967880;28;20275;-74
2023/07/05 09:30:16;;;;;;;2.30;1.87;;;;;;;18.20;62.27;100688.69;4973873;28;20230;-73
2023/07/05 09:32:43;;;;;;;2.20;1.93;;;;;;;18.25;62.38;100667.31;4963520;28;20297;-73
2023/07/05 09:35:14;;;;;;;2.43;2.10;;;;;;;18.25;62.22;100696.41;4971019;28;20720;-73
2023/07/05 09:37:50;;;;;;;8.53;1.97;;;;;;;18.38;63.69;100679.03;4965515;28;20860;-73
2023/07/05 09:40:20;;;;;;;2.03;1.80;;;;;;;18.45;63.02;100638.19;4966773;28;20623;-73
2023/07/05 09:42:51;;;;;;;5.53;2.00;;;;;;;18.44;56.50;100762.47;4970605;28;20299;-73
2023/07/05 09:45:18;;;;;;;2.13;1.53;;;;;;;18.51;56.96;100867.00;4970490;28;20259;-73
2023/07/05 09:47:47;;;;;;;1.60;1.50;;;;;;;18.57;57.75;100882.59;4970607;28;20297;-73
2023/07/05 09:50:16;;;;;;;2.10;1.43;;;;;;;18.70;56.96;100895.25;4977180;28;20241;-73
2023/07/05 09:52:43;;;;;;;3.00;1.93;;;;;;;18.85;57.93;100852.28;4978932;28;20700;-73
2023/07/05 09:55:14;;;;;;;1.90;1.57;;;;;;;19.09;58.64;100897.88;4970608;28;20242;-74
2023/07/05 09:57:42;;;;;;;1.33;1.23;;;;;;;19.01;55.29;100897.41;4973196;28;20215;-74
2023/07/05 10:00:22;;;;;;;1.70;1.53;;;;;;;19.07;55.96;100912.97;4961797;28;20254;-74
2023/07/05 10:02:49;;;;;;;1.70;1.60;;;;;;;18.96;54.00;100957.59;4977546;28;20210;-72
2023/07/05 10:05:26;;;;;;;4.80;1.60;;;;;;;18.92;55.07;100964.81;4969853;28;20242;-73
2023/07/05 10:07:56;;;;;;;1.40;1.30;;;;;;;18.92;55.08;100963.94;4970565;28;20576;-73
2023/07/05 10:10:27;;;;;;;1.60;1.50;;;;;;;18.54;53.44;100996.41;4969967;28;20318;-73
2023/07/05 10:13:04;;;;;;;3.00;1.43;;;;;;;18.67;55.20;100975.56;4974414;28;20256;-74
2023/07/05 10:15:30;;;;;;;4.93;1.60;;;;;;;18.72;56.70;100922.50;4955491;28;20219;-74
2023/07/05 10:17:57;;;;;;;1.77;1.27;;;;;;;18.70;56.54;100914.63;4955519;28;20294;-74
2023/07/05 10:20:26;;;;;;;1.77;1.50;;;;;;;18.80;58.10;100876.28;4978639;28;20594;-73
2023/07/05 10:23:02;;;;;;;2.20;1.30;;;;;;;18.77;55.90;100883.47;4977525;28;20238;-74
2023/07/05 10:25:33;;;;;;;3.67;1.40;;;;;;;18.74;55.06;100928.56;4977592;28;20214;-74
2023/07/05 10:28:03;;;;;;;1.73;1.20;;;;;;;18.72;54.88;100963.03;4972976;28;20674;-74
2023/07/05 10:30:29;;;;;;;1.27;1.10;;;;;;;18.76;53.59;100980.47;4965472;28;20318;-74
2023/07/05 10:33:13;;;;;;;7.30;1.70;;;;;;;18.84;54.43;100980.16;4970142;28;20332;-74
2023/07/05 10:35:46;;;;;;;2.17;1.40;;;;;;;19.07;56.39;100931.50;4966930;28;20695;-74
2023/07/05 10:38:19;;;;;;;1.50;1.30;;;;;;;19.13;54.04;100931.22;4965260;28;20669;-74
2023/07/05 10:40:46;;;;;;;1.17;1.10;;;;;;;19.16;54.41;100964.59;4969560;28;20544;-74
2023/07/05 10:43:14;;;;;;;1.83;1.27;;;;;;;19.12;54.44;100952.44;4971414;28;20211;-74
2023/07/05 10:45:41;;;;;;;1.90;1.20;;;;;;;18.96;54.36;100942.56;4968761;28;20238;-73
2023/07/05 10:48:16;;;;;;;1.53;1.43;;;;;;;19.00;54.98;100930.06;4975515;28;20672;-74
2023/07/05 10:50:44;;;;;;;1.80;1.40;;;;;;;18.80;54.59;100962.72;4961434;28;20320;-74
2023/07/05 10:53:14;;;;;;;2.13;1.40;;;;;;;18.84;57.29;100927.25;4969023;28;20254;-74
2023/07/05 10:55:45;;;;;;;1.13;1.00;;;;;;;18.83;56.71;100855.00;4969890;28;20279;-74
2023/07/05 10:58:16;;;;;;;1.97;1.50;;;;;;;18.83;55.75;100867.38;4971693;28;20216;-75
2023/07/05 11:00:46;;;;;;;2.03;1.60;;;;;;;18.92;56.49;100866.06;4968814;28;20310;-74
2023/07/05 11:03:17;;;;;;;1.17;1.07;;;;;;;18.81;56.92;100870.06;4969484;28;20215;-74
2023/07/05 11:05:47;;;;;;;1.20;1.10;;;;;;;18.90;57.12;100842.31;4953262;28;20650;-74
2023/07/05 11:08:18;;;;;;;1.37;1.20;;;;;;;18.94;56.90;100877.44;4971641;28;20215;-74
2023/07/05 11:10:45;;;;;;;2.37;1.00;;;;;;;19.25;58.68;100830.06;4950184;28;20231;-72
2023/07/05 11:13:18;;;;;;;1.20;1.10;;;;;;;19.38;56.18;100826.78;4964363;28;20234;-73
2023/07/05 11:15:45;;;;;;;1.20;1.10;;;;;;;19.38;55.82;100898.28;4969534;28;20567;-74
2023/07/05 11:18:15;;;;;;;1.30;1.13;;;;;;;19.45;55.71;100921.72;4969381;28;20243;-74
2023/07/05 11:20:50;;;;;;;1.20;1.10;;;;;;;19.41;54.97;100920.16;4967246;28;20239;-74
2023/07/05 11:23:55;;;;;;;4.07;1.03;;;;;;;19.48;54.10;100963.09;4950275;28;20749;-74
2023/07/05 11:26:33;;;;;;;0.93;0.93;;;;;;;19.40;54.11;100994.38;4966274;28;20208;-74
2023/07/05 11:29:22;;;;;;;1.20;1.10;;;;;;;19.40;54.61;100979.31;4963111;28;20222;-74
2023/07/05 11:32:01;;;;;;;1.03;1.00;;;;;;;19.15;54.66;100958.47;4969361;28;20227;-74
2023/07/05 11:34:46;;;;;;;1.73;0.83;;;;;;;19.25;55.66;100930.63;4969003;28;20538;-73
2023/07/05 11:37:50;;;;;;;2.63;1.30;;;;;;;19.34;54.17;100917.88;4955295;28;20269;-73
2023/07/05 11:41:05;;;;;;;1.63;1.27;;;;;;;19.87;52.28;100974.53;4971225;28;20231;-73